createdAt,value
2022-11-21T00:01:58.217Z,70.09
2022-11-21T00:04:40.448Z,69.74
2022-11-21T00:07:29.184Z,69.12
2022-11-21T00:10:19.074Z,70.04
2022-11-21T00:13:08.166Z,69.93
2022-11-21T00:15:58.200Z,70.60
2022-11-21T00:18:50.598Z,70.34
2022-11-21T00:21:32.052Z,71.10
2022-11-21T00:24:14.590Z,70.98
2022-11-21T00:27:03.185Z,70.62
2022-11-21T00:29:51.475Z,71.36
2022-11-21T00:32:33.126Z,71.74
2022-11-21T00:35:15.412Z,71.82
2022-11-21T00:38:04.125Z,72.04
2022-11-21T00:40:46.837Z,72.56
2022-11-21T00:43:36.172Z,71.95
2022-11-21T00:46:18.371Z,72.04
2022-11-21T00:49:07.210Z,71.00
2022-11-21T00:51:56.607Z,71.59
2022-11-21T00:54:39.193Z,71.33
2022-11-21T00:57:28.047Z,72.21
2022-11-21T01:00:10.498Z,71.41
2022-11-21T01:02:59.123Z,71.61
2022-11-21T01:05:41.395Z,71.63
2022-11-21T01:08:30.059Z,71.73
2022-11-21T01:11:14.590Z,72.77
2022-11-21T01:14:03.121Z,72.53
2022-11-21T01:16:45.741Z,72.49
2022-11-21T01:19:35.174Z,73.39
2022-11-21T01:22:17.464Z,73.03
2022-11-21T01:25:06.016Z,74.03
2022-11-21T01:27:55.075Z,73.39
2022-11-21T01:30:43.433Z,73.20
2022-11-21T01:33:26.182Z,73.65
2022-11-21T01:36:29.793Z,74.11
2022-11-21T01:39:20.167Z,73.47
2022-11-21T01:42:02.394Z,74.12
2022-11-21T01:45:40.113Z,73.47
2022-11-21T01:48:35.151Z,72.91
2022-11-21T01:52:01.134Z,73.54
2022-11-21T01:54:48.740Z,74.26
2022-11-21T01:57:56.040Z,73.90
2022-11-21T02:00:49.208Z,73.29
2022-11-21T02:03:42.049Z,73.56
2022-11-21T02:06:33.106Z,72.68
2022-11-21T02:09:15.410Z,73.08
2022-11-21T02:12:10.109Z,73.02
2022-11-21T02:14:52.415Z,71.90
2022-11-21T02:17:42.187Z,72.36
2022-11-21T02:20:27.436Z,71.73
2022-11-21T02:23:23.108Z,71.43
2022-11-21T02:26:05.412Z,71.80
2022-11-21T02:28:54.104Z,71.24
2022-11-21T02:31:36.411Z,71.82
2022-11-21T02:34:25.258Z,72.12
2022-11-21T02:37:16.070Z,71.71
2022-11-21T02:40:16.038Z,71.37
2022-11-21T02:43:08.424Z,70.99
2022-11-21T02:45:53.137Z,69.44
2022-11-21T02:48:43.102Z,69.53
2022-11-21T02:51:32.173Z,69.35
2022-11-21T02:54:14.328Z,68.89
2022-11-21T02:57:04.132Z,68.78
2022-11-21T02:59:46.261Z,68.54
2022-11-21T03:02:35.050Z,68.37
2022-11-21T03:05:26.554Z,68.20
2022-11-21T03:08:09.035Z,67.70
2022-11-21T03:11:04.208Z,67.15
2022-11-21T03:13:46.280Z,66.48
2022-11-21T03:16:35.209Z,66.52
2022-11-21T03:19:17.337Z,64.52
2022-11-21T03:22:06.074Z,64.31
2022-11-21T03:24:55.017Z,61.76
2022-11-21T03:27:44.036Z,62.98
2022-11-21T03:30:41.023Z,59.12
2022-11-21T03:33:29.998Z,58.55
2022-11-21T03:36:12.463Z,56.71
2022-11-21T03:39:03.459Z,56.01
2022-11-21T03:41:45.378Z,55.33
2022-11-21T03:44:34.139Z,54.77
2022-11-21T03:47:16.431Z,54.43
2022-11-21T03:50:05.037Z,49.82
2022-11-21T03:52:54.407Z,47.96
2022-11-21T03:55:42.471Z,46.44
2022-11-21T03:58:24.127Z,45.76
2022-11-21T04:01:16.629Z,49.04
2022-11-21T04:03:59.141Z,45.65
2022-11-21T04:06:47.411Z,45.53
2022-11-21T04:09:29.156Z,43.76
2022-11-21T04:12:11.479Z,44.65
2022-11-21T04:15:00.173Z,44.49
2022-11-21T04:17:49.384Z,44.14
2022-11-21T04:20:31.093Z,45.24
2022-11-21T04:23:20.409Z,42.44
2022-11-21T04:26:03.100Z,43.27
2022-11-21T04:28:59.017Z,41.69
2022-11-21T04:31:48.141Z,42.91
2022-11-21T04:34:37.141Z,41.20
2022-11-21T04:37:19.537Z,42.59
2022-11-21T04:40:08.080Z,42.98
2022-11-21T04:42:57.437Z,44.12
2022-11-21T04:45:40.134Z,45.55
2022-11-21T04:48:29.152Z,44.11
2022-11-21T04:51:11.632Z,40.98
2022-11-21T04:54:00.138Z,43.98
2022-11-21T04:56:42.392Z,42.75
2022-11-21T04:59:31.077Z,41.16
2022-11-21T05:02:13.430Z,44.87
2022-11-21T05:05:02.086Z,41.16
2022-11-21T05:07:44.507Z,43.20
2022-11-21T05:10:33.112Z,40.69
2022-11-21T05:13:23.466Z,39.57
2022-11-21T05:16:13.070Z,36.91
2022-11-21T05:18:55.368Z,37.07
2022-11-21T05:21:44.116Z,36.12
2022-11-21T05:24:49.051Z,37.38
2022-11-21T05:27:38.427Z,38.83
2022-11-21T05:30:27.156Z,37.93
2022-11-21T05:33:09.376Z,36.76
2022-11-21T05:35:58.164Z,35.82
2022-11-21T05:38:40.559Z,35.58
2022-11-21T05:41:29.226Z,38.14
2022-11-21T05:44:11.556Z,35.27
2022-11-21T05:47:00.472Z,35.86
2022-11-21T05:49:42.422Z,34.95
2022-11-21T05:52:31.124Z,33.48
2022-11-21T05:55:13.452Z,35.01
2022-11-21T05:58:02.188Z,32.75
2022-11-21T06:00:44.504Z,33.64
2022-11-21T06:03:35.170Z,33.08
2022-11-21T06:06:25.011Z,32.93
2022-11-21T06:09:14.073Z,32.53
2022-11-21T06:11:56.558Z,36.26
2022-11-21T06:14:45.196Z,34.08
2022-11-21T06:17:27.414Z,34.14
2022-11-21T06:20:17.208Z,35.51
2022-11-21T06:22:59.532Z,34.09
2022-11-21T06:25:48.143Z,35.78
2022-11-21T06:28:47.949Z,34.37
2022-11-21T06:31:38.112Z,33.80
2022-11-21T06:34:20.436Z,33.54
2022-11-21T06:37:09.434Z,34.23
2022-11-21T06:39:51.443Z,33.40
2022-11-21T06:42:41.129Z,33.72
2022-11-21T06:45:23.510Z,31.94
2022-11-21T06:48:12.474Z,33.42
2022-11-21T06:50:54.436Z,34.64
2022-11-21T06:53:43.160Z,32.15
2022-11-21T06:56:25.364Z,33.95
2022-11-21T06:59:14.214Z,33.59
2022-11-21T07:01:56.355Z,34.50
2022-11-21T07:04:45.143Z,33.25
2022-11-21T07:07:27.448Z,32.63
2022-11-21T07:10:17.149Z,33.09
2022-11-21T07:13:17.893Z,34.11
2022-11-21T07:16:16.141Z,33.69
2022-11-21T07:18:58.372Z,33.98
2022-11-21T07:21:47.082Z,33.04
2022-11-21T07:24:29.438Z,32.68
2022-11-21T07:27:18.038Z,32.33
2022-11-21T07:30:13.152Z,32.33
2022-11-21T07:33:10.430Z,33.20
2022-11-21T07:35:53.181Z,32.75
2022-11-21T07:38:42.574Z,32.48
2022-11-21T07:41:25.190Z,32.68
2022-11-21T07:44:07.406Z,32.99
2022-11-21T07:46:56.127Z,33.74
2022-11-21T07:49:44.435Z,33.00
2022-11-21T07:52:27.122Z,34.63
2022-11-21T07:55:16.477Z,34.30
2022-11-21T07:58:07.117Z,35.96
2022-11-21T08:00:55.437Z,33.37
2022-11-21T08:03:37.165Z,33.56
2022-11-21T08:06:25.366Z,33.75
2022-11-21T08:09:07.063Z,34.98
2022-11-21T08:12:03.082Z,33.24
2022-11-21T08:14:51.401Z,33.96
2022-11-21T08:17:37.147Z,33.10
2022-11-21T08:20:25.350Z,33.49
2022-11-21T08:23:07.229Z,33.38
2022-11-21T08:25:49.318Z,33.24
2022-11-21T08:28:38.165Z,33.96
2022-11-21T08:31:26.462Z,33.37
2022-11-21T08:34:11.651Z,33.60
2022-11-21T08:37:03.088Z,34.34
2022-11-21T08:39:45.347Z,31.69
2022-11-21T10:22:41.427Z,34.65
2022-11-21T10:25:32.041Z,32.11
2022-11-21T10:28:37.377Z,34.09
2022-11-21T10:31:21.274Z,35.07
2022-11-21T10:34:13.392Z,32.35
2022-11-21T10:37:39.845Z,31.88
2022-11-21T10:40:36.296Z,34.06
2022-11-21T10:43:42.923Z,34.82
2022-11-21T10:46:31.263Z,32.58
2022-11-21T10:49:22.606Z,32.68
2022-11-21T10:52:20.308Z,35.74
2022-11-21T10:55:12.381Z,35.30
2022-11-21T10:58:07.300Z,37.56
2022-11-21T11:01:05.705Z,34.72
2022-11-21T11:04:06.987Z,37.84
2022-11-21T11:06:56.373Z,37.66
2022-11-21T11:09:48.338Z,35.72
2022-11-21T11:12:51.866Z,35.65
2022-11-21T11:15:42.391Z,36.21
2022-11-21T11:18:31.656Z,36.29
2022-11-21T11:21:49.550Z,37.96
2022-11-21T11:24:34.634Z,39.64
2022-11-21T11:27:36.238Z,39.26
2022-11-21T11:30:25.637Z,40.36
2022-11-21T11:33:42.431Z,42.14
2022-11-21T11:36:45.533Z,42.55
2022-11-21T11:40:05.461Z,43.74
2022-11-21T11:43:21.147Z,44.40
2022-11-21T11:46:38.404Z,44.63
2022-11-21T11:50:12.661Z,45.30
2022-11-21T11:53:22.446Z,46.57
2022-11-21T11:56:11.686Z,47.66
2022-11-21T11:59:16.257Z,46.81
2022-11-21T12:02:01.855Z,47.56
2022-11-21T12:05:13.251Z,47.14
2022-11-21T12:12:16.243Z,47.25
2022-11-21T12:15:48.309Z,48.27
2022-11-21T12:18:41.397Z,48.08
2022-11-21T12:21:30.712Z,49.79
2022-11-21T12:24:13.272Z,49.34
2022-11-21T12:27:48.196Z,49.35
2022-11-21T12:30:49.234Z,50.36
2022-11-21T12:33:44.425Z,50.71
2022-11-21T12:36:37.607Z,50.88
2022-11-21T12:39:48.149Z,50.60
2022-11-21T12:42:52.240Z,51.51
2022-11-21T12:45:47.322Z,52.78
2022-11-21T12:49:27.654Z,52.88
2022-11-21T12:52:53.690Z,53.70
2022-11-21T12:55:44.302Z,55.08
2022-11-21T12:58:43.613Z,54.53
2022-11-21T13:01:39.344Z,55.45
2022-11-21T13:04:50.568Z,54.91
2022-11-21T13:07:42.339Z,56.23
2022-11-21T13:10:31.327Z,56.78
2022-11-21T13:13:49.363Z,56.45
2022-11-21T13:16:45.313Z,56.07
2022-11-21T13:19:53.354Z,57.29
2022-11-21T13:22:44.655Z,57.02
2022-11-21T13:25:47.455Z,57.07
2022-11-21T13:28:42.595Z,57.02
2022-11-21T13:31:39.238Z,57.01
2022-11-21T13:34:50.372Z,59.16
2022-11-21T13:38:14.886Z,59.10
2022-11-21T13:41:15.391Z,58.46
2022-11-21T13:44:39.433Z,60.52
2022-11-21T13:47:34.393Z,58.73
2022-11-21T13:50:28.556Z,59.74
2022-11-21T13:53:32.418Z,59.43
2022-11-21T13:56:47.281Z,60.07
2022-11-21T13:59:48.295Z,60.90
2022-11-21T14:02:48.693Z,61.21
2022-11-21T14:05:58.357Z,61.57
2022-11-21T14:08:48.260Z,62.14
2022-11-21T14:11:52.300Z,62.84
2022-11-21T14:14:49.708Z,62.59
2022-11-21T14:17:49.321Z,63.44
2022-11-21T14:21:09.278Z,63.02
2022-11-21T14:23:58.689Z,62.43
2022-11-21T14:26:54.249Z,62.56
2022-11-21T14:29:49.264Z,62.06
2022-11-21T14:32:39.598Z,62.75
2022-11-21T14:35:32.328Z,62.46
2022-11-21T14:38:14.743Z,63.15
2022-11-21T14:41:35.262Z,63.41
2022-11-21T14:44:18.713Z,62.56
2022-11-21T14:47:26.772Z,62.23
2022-11-21T14:50:16.252Z,63.19
2022-11-21T14:53:07.600Z,63.53
2022-11-21T14:55:50.215Z,63.86
2022-11-21T14:58:38.647Z,63.91
2022-11-21T15:01:47.404Z,63.47
2022-11-21T15:04:39.757Z,63.50
2022-11-21T15:07:32.279Z,63.23
2022-11-21T15:10:30.224Z,63.60
2022-11-21T15:13:39.738Z,64.00
2022-11-21T15:16:31.073Z,64.01
2022-11-21T15:19:26.719Z,64.41
2022-11-21T15:22:30.073Z,64.66
2022-11-21T15:25:37.199Z,65.19
2022-11-21T15:28:19.771Z,65.47
2022-11-21T15:31:33.413Z,64.75
2022-11-21T15:37:40.298Z,65.73
2022-11-21T15:40:28.591Z,65.66
2022-11-21T15:43:11.252Z,65.79
2022-11-21T15:46:10.322Z,66.03
2022-11-21T15:49:06.236Z,66.75
2022-11-21T15:52:09.845Z,66.57
2022-11-21T15:54:59.331Z,66.61
2022-11-21T15:57:13.219Z,64.51
2022-11-21T15:57:41.468Z,66.83
2022-11-21T16:00:31.332Z,67.63
2022-11-21T16:03:20.358Z,67.08
2022-11-21T16:06:02.774Z,67.15
2022-11-21T16:08:51.304Z,66.57
2022-11-21T16:11:48.225Z,67.24
2022-11-21T16:14:36.568Z,67.38
2022-11-21T16:17:19.320Z,67.35
2022-11-21T16:20:08.240Z,67.95
2022-11-21T16:23:03.266Z,68.81
2022-11-21T16:26:03.623Z,68.40
2022-11-21T16:28:47.058Z,68.72
2022-11-21T16:31:38.380Z,68.48
2022-11-21T16:34:21.164Z,68.75
2022-11-21T16:37:10.344Z,69.05
2022-11-21T16:39:55.406Z,69.34
2022-11-21T16:42:44.378Z,68.88
2022-11-21T16:45:26.642Z,67.75
2022-11-21T16:48:15.329Z,68.09
2022-11-21T16:50:59.003Z,69.15
2022-11-21T16:53:51.342Z,69.01
2022-11-21T16:56:34.687Z,68.92
2022-11-21T16:59:23.250Z,69.90
2022-11-21T17:02:12.513Z,69.04
2022-11-21T17:05:01.801Z,68.49
2022-11-21T17:07:53.325Z,68.14
2022-11-21T17:10:42.249Z,68.86
2022-11-21T17:13:31.264Z,68.96
2022-11-21T17:16:21.553Z,69.51
2022-11-21T17:19:08.634Z,69.55
2022-11-21T17:21:58.329Z,69.50
2022-11-21T17:24:41.479Z,69.06
2022-11-21T17:27:32.188Z,68.84
2022-11-21T17:30:17.142Z,68.72
2022-11-21T17:33:06.186Z,68.51
2022-11-21T17:35:55.418Z,68.74
2022-11-21T17:38:37.569Z,69.14
2022-11-21T17:41:27.452Z,67.81
2022-11-21T17:44:20.320Z,69.62
2022-11-21T17:47:03.851Z,68.60
2022-11-21T17:49:52.249Z,69.38
2022-11-21T17:52:42.233Z,69.21
2022-11-21T17:55:30.562Z,70.12
2022-11-21T17:58:13.239Z,69.41
2022-11-21T18:01:03.638Z,70.10
2022-11-21T18:03:47.118Z,69.64
2022-11-21T18:06:41.626Z,70.11
2022-11-21T18:09:24.436Z,71.02
2022-11-21T18:12:06.773Z,70.94
2022-11-21T18:14:55.187Z,70.20
2022-11-21T18:17:45.220Z,70.42
2022-11-21T18:20:40.385Z,70.67
2022-11-21T18:23:22.526Z,70.56
2022-11-21T18:26:16.355Z,70.49
2022-11-21T18:29:34.534Z,70.78
2022-11-21T18:32:09.433Z,70.94
2022-11-21T18:34:58.737Z,71.09
2022-11-21T18:37:42.387Z,71.48
2022-11-21T18:40:30.662Z,70.86
2022-11-21T18:43:12.186Z,71.64
2022-11-21T18:45:54.456Z,70.96
2022-11-21T18:49:01.567Z,71.91
2022-11-21T18:51:52.122Z,71.91
2022-11-21T18:54:34.296Z,72.05
2022-11-21T18:57:16.673Z,71.24
2022-11-21T19:00:05.443Z,71.42
2022-11-21T19:02:48.065Z,72.51
2022-11-21T19:05:37.313Z,72.31
2022-11-21T19:08:26.582Z,72.13
2022-11-21T19:11:13.316Z,71.67
2022-11-21T19:14:03.276Z,71.99
2022-11-21T19:16:45.710Z,71.35
2022-11-21T19:19:36.343Z,72.40
2022-11-21T19:22:24.564Z,71.85
2022-11-21T19:25:07.316Z,72.25
2022-11-21T19:27:55.684Z,72.73
2022-11-21T19:30:38.254Z,71.92
2022-11-21T19:33:27.319Z,72.44
2022-11-21T19:36:12.517Z,71.42
2022-11-21T19:39:01.313Z,72.85
2022-11-21T19:41:43.625Z,72.68
2022-11-21T19:44:32.245Z,72.99
2022-11-21T19:47:21.267Z,72.65
2022-11-21T19:50:10.359Z,73.16
2022-11-21T19:52:52.548Z,73.00
2022-11-21T19:55:41.309Z,73.33
2022-11-21T19:58:24.510Z,73.75
2022-11-21T20:01:22.416Z,73.62
2022-11-21T20:04:06.535Z,73.62
2022-11-21T20:06:55.214Z,72.47
2022-11-21T20:09:37.921Z,72.79
2022-11-21T20:12:27.221Z,73.24
2022-11-21T20:15:09.538Z,72.02
2022-11-21T20:17:59.401Z,71.65
2022-11-21T20:20:54.155Z,72.13
2022-11-21T20:23:43.291Z,73.06
2022-11-21T20:26:27.536Z,72.41
2022-11-21T20:29:18.295Z,72.44
2022-11-21T20:32:02.264Z,72.08
2022-11-21T20:34:51.293Z,72.06
2022-11-21T20:37:34.699Z,71.13
2022-11-21T20:40:23.363Z,71.26
2022-11-21T20:43:05.559Z,71.82
2022-11-21T20:46:14.142Z,71.15
2022-11-21T20:48:57.643Z,70.28
2022-11-21T20:54:49.137Z,70.73
2022-11-21T20:57:38.145Z,71.04
2022-11-21T21:00:20.794Z,70.65
2022-11-21T21:03:09.235Z,71.57
2022-11-21T21:06:01.478Z,70.34
2022-11-21T21:08:55.547Z,70.41
2022-11-21T21:11:53.544Z,71.18
2022-11-21T21:14:35.570Z,70.59
2022-11-21T21:17:24.298Z,70.42
2022-11-21T21:20:13.506Z,69.85
2022-11-21T21:23:03.154Z,69.37
2022-11-21T21:25:46.250Z,70.33
2022-11-21T21:28:35.265Z,69.64
2022-11-21T21:31:22.823Z,70.26
2022-11-21T21:34:11.542Z,69.63
2022-11-21T21:36:53.537Z,70.22
2022-11-21T21:39:42.326Z,70.88
2022-11-21T21:42:24.470Z,70.80
2022-11-21T21:45:13.117Z,70.86
2022-11-21T21:47:55.517Z,70.78
2022-11-21T21:50:44.208Z,70.86
2022-11-21T21:53:26.537Z,70.99
2022-11-21T21:56:15.328Z,69.94
2022-11-21T21:58:58.890Z,70.49
2022-11-21T22:01:50.323Z,71.22
2022-11-21T22:04:34.872Z,70.49
2022-11-21T22:07:23.225Z,70.98
2022-11-21T22:10:05.578Z,71.10
2022-11-21T22:12:56.280Z,70.04
2022-11-21T22:15:38.495Z,70.59
2022-11-21T22:18:27.361Z,70.64
2022-11-21T22:21:29.083Z,70.86
2022-11-21T22:24:25.822Z,70.27
2022-11-21T22:27:08.537Z,70.13
2022-11-21T22:29:57.179Z,71.01
2022-11-21T22:32:39.613Z,69.58
2022-11-21T22:35:28.229Z,69.92
2022-11-21T22:38:10.552Z,69.86
2022-11-21T22:40:59.218Z,69.51
2022-11-21T22:43:48.147Z,69.91
2022-11-21T22:46:38.542Z,70.19
2022-11-21T22:49:20.311Z,69.65
2022-11-21T22:52:08.532Z,70.00
2022-11-21T22:54:50.130Z,69.54
2022-11-21T22:57:42.505Z,69.96
2022-11-21T23:00:25.318Z,70.49
2022-11-21T23:03:13.520Z,70.79
2022-11-21T23:05:55.313Z,71.00
2022-11-21T23:08:44.537Z,70.13
2022-11-21T23:11:40.417Z,69.59
2022-11-21T23:14:22.546Z,69.90
2022-11-21T23:17:11.348Z,69.92
2022-11-21T23:19:59.523Z,70.45
2022-11-21T23:22:48.151Z,69.85
2022-11-21T23:25:30.525Z,69.94
2022-11-21T23:28:19.247Z,70.05
2022-11-21T23:31:01.522Z,68.97
2022-11-21T23:33:50.199Z,69.09
2022-11-21T23:36:40.135Z,69.73
2022-11-21T23:39:28.867Z,69.87
2022-11-21T23:42:12.711Z,70.78
2022-11-21T23:44:54.462Z,70.62
2022-11-21T23:47:43.252Z,71.72
2022-11-21T23:50:32.129Z,70.76
2022-11-21T23:53:21.246Z,70.62
2022-11-21T23:56:03.152Z,71.42
2022-11-21T23:58:52.315Z,70.83
